Aeroporto :
LOGIN :

Iscrizione | Disclaimer

   EN    FR    IT 

 










Sommario :    VFR   VFR Marginale   IFR   IFR Intensivo   IFR Molto Intensivo
Visibilità : 
Base nubi : 
>= 8 km
>= 3000ft
5 / 8 km
1000 / 3000 ft
1500m / 5 km
500 / 1000 ft
800 / 1500m
200 / 500 ft
< 800m
< 200 ft
Simboli :   Temporali  Nebbia  Neve Forte  Precipitazioni Forti  Vento > 20 kt
SIGMETs :   Varie  Temporali  Ghiacco  Turbolenza  Onda orograficha  Ceneri Vulcaniche






- Altitudine del aeroporto : 348 ft
- Codice IATA : LDV


LFRJ - Landivisiau

ULTIMO METAR :
  • 281700Z AUTO 23017KT 7000 -RA BKN012/// BKN030/// BKN044/// ///CB 14/13 Q1014 TEMPO 22020G30KT 1500 TSRA

METARs OBSOLETI :
  • 281630Z AUTO 21018KT 8000 -RA BKN010/// BKN027/// BKN045/// ///CB 14/13 Q1014 TEMPO 22020G30KT 1500 TSRA
  • 281600Z AUTO 22019KT 9000 1900 RA SCT017/// BKN031/// BKN039/// ///CB 14/12 Q1015 TEMPO 22020G30KT 1500 TSRA BKN010CB
  • 281530Z AUTO 22020KT 9999 -RA SCT019/// SCT040/// BKN056/// ///CB 15/13 Q1014 TEMPO 22020G30KT 1500 TSRA BKN010CB
  • 281500Z AUTO 22016G27KT 9999 -RA BKN021/// BKN031/// BKN045/// ///TCU 16/13 Q1015 TEMPO 1500 TSRA BKN010CB
  • 281430Z AUTO 21017KT 180V240 9999 BKN025/// BKN031/// BKN037/// ///TCU 17/12 Q1015 TEMPO 1500 +TSRA BKN010CB

TAF AMD TAF LFRJ
Valido dal 28 a 15 ore il 29 a 00 ore UTC


281442Z 2815/2824 22015KT 9999 BKN025
TEMPO 2815/2824 22020G30KT 4000 SHRA BKN015CB
PROB40 2815/2819 1500 TSRA BKN010CB



MetMap, La meteo Aeronautica in un colpo d'occhio ! - Copyright ORBIFLY Dicembre 2007 - Disclaimer

ORBIFLY MET'MAP TEAM :

Programmazione e sviluppo : Alexandra Zaïnal
Concezione : Baudouin d'Aumeries
Aiuto per la programmazione : Marc-Olivier Méhu
Supporto tecnico e logistico : Manuel Goepfert
Aiuto per la traduzione : Arnaldo La Scala

Contatto : metmap@orbifly.com




FONTI E CREDITI :

   NOAA